Pagina principale
METAR-TAF:

METAR-TAF

Aeroporti :

Perugia, Italia

Aeroporto di Perugia

latitudine: 43-05N, longitudine: 012-30E, altezza: 208 m

Osservazione

Il bollettino è stato emesso 1 ora e 21 minuti fa, alle 06:50 UTC
Vento 3 kt da direzioni variabili
Temperature 18°C
Umidità 56%
Pressione 1021 hPa
Visibilità 10 km o più
nessuna nube inferiore a 1500 m e nessun cumulonembo

METAR: LIRZ 270650Z VRB03KT CAVOK 18/09 Q1021

Ora: 10:11 (08:11 UTC)

Previsione

Il bollettino è stato emesso 3 ore e 11 minuti fa, alle 05:00 UTC
Previsione valida dal 27 alle 06 UTC al 28 alle 06 UTC
Vento 8 kt da nord-est
Visibilità 10 km o più
Nubi sparse ad un'altezza di 3000 ft

TAF: LIRZ 270500Z 2706/2806 04008KT 9999 SCT030

Osservazioni e previsioni meteorologiche di più di 4000 aeroporti (messaggi METAR e TAF).

Le stazioni disponibili sono rappresentate dai dischi gialli e rossi sulla carta.

Puntare il mouse per vedere il nome della stazione.

Clicca sopra per visualizzare le osservazioni e previsioni meteorologiche.

Per cambiare la mappa : fare clic sui pulsanti verdi con una croce nera per ingrandire, il pulsante verde con un trattino per diminuire, o sulla freccia verde per le mappe adiacenti.


METAR-TAF: